Time;durP1;ratioP1;P1;durP2;ratioP2;P2;SDS_P1;SDS_P2;PMS_P1;PMS_P2;Temp;Humidity;BMP_temperature;BMP_pressure;BME280_temperature;BME280_humidity;BME280_pressure;Samples;Min_cycle;Max_cycle;Signal;HPM_P1;HPM_P2
2022/04/24 00:00:07;;;;;;;52.27;28.32;;;;;;;3.57;90.64;97180.25;1732987;82;20980;-57
2022/04/24 00:02:35;;;;;;;50.85;29.60;;;;;;;3.62;91.65;97180.31;1757874;81;21004;-57
2022/04/24 00:05:01;;;;;;;50.75;27.87;;;;;;;3.64;88.19;97175.50;1744520;82;21008;-57
2022/04/24 00:07:27;;;;;;;43.70;25.52;;;;;;;3.65;92.29;97174.43;1744578;82;22091;-57
2022/04/24 00:09:53;;;;;;;46.75;28.07;;;;;;;3.68;91.04;97172.59;1744403;82;21881;-57
2022/04/24 00:12:19;;;;;;;46.02;26.42;;;;;;;3.68;91.45;97160.55;1744527;82;20992;-58
2022/04/24 00:14:45;;;;;;;43.80;28.02;;;;;;;3.80;89.94;97156.33;1749911;81;20975;-57
2022/04/24 00:17:11;;;;;;;47.80;27.25;;;;;;;3.84;90.03;97157.42;1735589;81;21277;-57
2022/04/24 00:19:37;;;;;;;38.70;23.70;;;;;;;3.88;92.02;97155.33;1721736;81;21015;-57
2022/04/24 00:22:03;;;;;;;37.78;22.48;;;;;;;3.94;90.33;97144.92;1738004;81;21606;-57
2022/04/24 00:24:29;;;;;;;37.73;22.50;;;;;;;3.99;89.91;97151.36;1757210;80;21019;-57
2022/04/24 00:26:55;;;;;;;44.15;26.85;;;;;;;4.00;88.68;97149.77;1739788;81;20893;-57
2022/04/24 00:29:21;;;;;;;44.10;27.25;;;;;;;4.06;90.53;97149.27;1743312;81;20955;-57
2022/04/24 00:31:47;;;;;;;38.00;24.43;;;;;;;4.09;91.12;97144.72;1741473;81;21083;-58
2022/04/24 00:34:13;;;;;;;47.88;30.35;;;;;;;4.17;89.88;97142.36;1725301;82;21491;-57
2022/04/24 00:36:39;;;;;;;47.50;29.72;;;;;;;4.17;89.88;97142.36;1728182;82;20945;-57
2022/04/24 00:39:05;;;;;;;47.80;28.70;;;;;;;4.21;91.13;97133.28;1738966;82;21017;-58
2022/04/24 00:41:31;;;;;;;51.77;28.02;;;;;;;4.23;90.86;97137.84;1744590;82;21017;-57
2022/04/24 00:43:57;;;;;;;43.02;25.65;;;;;;;4.24;89.69;97135.42;1744641;82;20972;-57
2022/04/24 00:46:34;;;;;;;41.60;24.23;;;;;;;4.16;90.64;97126.00;1744763;82;21535;-57
2022/04/24 00:49:00;;;;;;;41.68;25.75;;;;;;;4.17;89.41;97124.92;1743683;82;21421;-57
2022/04/24 00:51:26;;;;;;;39.73;25.15;;;;;;;4.20;91.19;97130.33;1744758;82;20976;-58
2022/04/24 00:53:52;;;;;;;39.00;24.65;;;;;;;4.20;91.09;97119.06;1741076;82;21507;-57
2022/04/24 00:56:18;;;;;;;44.23;25.40;;;;;;;4.21;89.31;97120.67;1750572;81;20984;-57
2022/04/24 00:58:44;;;;;;;41.98;26.73;;;;;;;4.21;91.36;97122.55;1751794;81;22163;-57
2022/04/24 01:01:10;;;;;;;42.70;24.35;;;;;;;4.22;91.72;97120.14;1749236;81;21484;-57
2022/04/24 01:03:37;;;;;;;44.63;26.02;;;;;;;4.27;89.99;97119.34;1761720;80;20881;-57
2022/04/24 01:06:03;;;;;;;37.95;25.00;;;;;;;4.24;89.02;97117.46;1751426;81;21047;-57
2022/04/24 01:08:29;;;;;;;41.33;26.75;;;;;;;4.20;90.60;97120.41;1744461;81;20880;-57
2022/04/24 01:10:55;;;;;;;42.70;27.00;;;;;;;4.18;89.74;97115.01;1732314;82;21546;-57
2022/04/24 01:13:21;;;;;;;38.80;25.75;;;;;;;4.23;91.07;97117.73;1744132;82;20897;-57
2022/04/24 01:15:47;;;;;;;39.88;25.05;;;;;;;4.25;91.31;97119.61;1746828;81;20996;-57
2022/04/24 01:18:13;;;;;;;44.77;27.58;;;;;;;4.29;91.66;97114.02;1748333;81;21016;-57
2022/04/24 01:20:39;;;;;;;41.92;25.82;;;;;;;4.32;91.03;97118.03;1728842;82;22464;-57
2022/04/24 01:23:05;;;;;;;44.45;24.98;;;;;;;4.30;92.04;97113.48;1730594;82;21521;-57
2022/04/24 01:25:31;;;;;;;41.35;25.32;;;;;;;4.34;90.20;97112.67;1744286;82;20999;-57
2022/04/24 01:27:57;;;;;;;46.63;26.77;;;;;;;4.34;91.31;97107.31;1748529;81;20952;-57
2022/04/24 01:30:23;;;;;;;44.05;27.30;;;;;;;4.37;90.73;97108.15;1748748;80;20921;-58
2022/04/24 01:32:49;;;;;;;40.17;24.47;;;;;;;4.39;89.82;97102.52;1744505;82;21043;-57
2022/04/24 01:35:15;;;;;;;36.65;24.67;;;;;;;4.41;89.12;97101.17;1753180;81;21536;-57
2022/04/24 01:37:44;;;;;;;44.38;26.40;;;;;;;4.43;89.95;97096.88;1744679;81;21603;-57
2022/04/24 01:40:10;;;;;;;;;;;;;;;4.43;91.92;97092.33;1746968;82;21009;-57
2022/04/24 01:42:36;;;;;;;36.15;22.85;;;;;;;4.45;90.70;97090.75;1744205;82;20766;-57
2022/04/24 01:45:02;;;;;;;39.75;24.85;;;;;;;4.45;90.23;97088.87;1751851;81;20968;-57
2022/04/24 01:47:28;;;;;;;39.63;23.12;;;;;;;4.46;92.05;97088.33;1738432;81;22074;-57
2022/04/24 01:49:54;;;;;;;40.83;23.57;;;;;;;4.51;90.10;97087.80;1739625;82;20837;-57
2022/04/24 01:52:19;;;;;;;39.90;25.02;;;;;;;4.52;88.54;97095.31;1725755;82;21568;-57
2022/04/24 01:54:45;;;;;;;34.50;22.93;;;;;;;4.49;88.19;97088.60;1744035;82;20830;-57
2022/04/24 01:57:11;;;;;;;33.30;23.42;;;;;;;4.49;90.05;97087.26;1757006;81;20853;-57
2022/04/24 01:59:37;;;;;;;38.20;24.57;;;;;;;4.43;92.30;97073.55;1732056;81;21593;-57
2022/04/24 02:02:04;;;;;;;43.63;25.65;;;;;;;4.43;92.30;97073.55;1744623;82;21622;-57
2022/04/24 02:04:30;;;;;;;38.58;24.25;;;;;;;4.46;92.32;97082.43;1751901;80;21491;-57
2022/04/24 02:06:56;;;;;;;33.18;21.37;;;;;;;4.53;89.80;97079.51;1736607;82;20870;-57
2022/04/24 02:09:22;;;;;;;37.53;23.70;;;;;;;4.48;88.58;97068.21;1742470;82;21583;-57
2022/04/24 02:11:48;;;;;;;36.35;21.10;;;;;;;4.45;88.74;97066.06;1727912;82;21550;-57
2022/04/24 02:14:14;;;;;;;35.98;22.17;;;;;;;4.47;88.01;97065.27;1726262;82;21658;-57
2022/04/24 02:16:40;;;;;;;35.60;23.15;;;;;;;4.49;88.33;97063.11;1738377;82;20940;-58
2022/04/24 02:19:06;;;;;;;36.85;22.05;;;;;;;4.50;89.02;97069.28;1727140;82;20968;-57
2022/04/24 02:21:31;;;;;;;38.38;24.70;;;;;;;4.55;89.62;97062.61;1744680;82;20960;-57
2022/04/24 02:23:57;;;;;;;39.73;25.40;;;;;;;4.61;90.95;97058.04;1755551;80;22197;-57
2022/04/24 02:26:23;;;;;;;40.28;25.62;;;;;;;4.69;90.47;97057.52;1724914;81;20861;-57
2022/04/24 02:28:49;;;;;;;46.88;25.40;;;;;;;4.69;90.47;97057.52;1724350;82;21527;-57
2022/04/24 02:31:15;;;;;;;39.42;24.23;;;;;;;4.72;90.59;97054.33;1747709;81;20960;-57
2022/04/24 02:33:41;;;;;;;38.02;24.77;;;;;;;4.72;91.09;97057.81;1734888;82;20997;-57
2022/04/24 02:36:07;;;;;;;39.98;24.92;;;;;;;4.75;90.33;97051.11;1744425;82;21044;-58
2022/04/24 02:38:33;;;;;;;43.95;27.52;;;;;;;4.81;91.42;97048.70;1744255;82;21031;-57
2022/04/24 02:40:59;;;;;;;40.80;24.52;;;;;;;4.90;89.03;97046.30;1736616;82;20945;-57
2022/04/24 02:43:25;;;;;;;42.20;26.02;;;;;;;4.98;89.35;97047.92;1744281;82;21027;-57
2022/04/24 02:45:51;;;;;;;42.23;28.55;;;;;;;5.18;89.69;97039.60;1752020;81;20881;-57
2022/04/24 02:48:17;;;;;;;35.98;22.60;;;;;;;5.18;89.69;97039.60;1733295;81;21684;-57
2022/04/24 02:50:42;;;;;;;39.35;24.12;;;;;;;5.24;88.42;97050.09;1728512;82;21562;-57
2022/04/24 02:53:09;;;;;;;35.00;24.35;;;;;;;5.18;88.06;97044.44;1724008;82;20960;-57
2022/04/24 02:55:35;;;;;;;47.40;28.87;;;;;;;5.19;90.21;97045.23;1737900;82;21028;-57
2022/04/24 02:58:04;;;;;;;42.90;26.65;;;;;;;5.24;90.07;97045.25;1749357;81;21423;-57
2022/04/24 03:00:41;;;;;;;42.50;27.87;;;;;;;5.29;89.59;97051.41;1739294;81;21630;-58
2022/04/24 03:02:58;;;;;;;43.05;24.85;;;;;;;5.36;89.34;97048.46;1727511;82;21242;-57
2022/04/24 03:05:24;;;;;;;42.95;26.73;;;;;;;5.44;89.90;97055.17;1724520;82;21032;-57
2022/04/24 03:07:50;;;;;;;41.55;26.02;;;;;;;5.47;90.44;97051.94;1744118;82;21005;-57
2022/04/24 03:10:19;;;;;;;38.17;24.63;;;;;;;5.50;90.17;97052.22;1744531;82;21505;-57
2022/04/24 03:12:45;;;;;;;40.17;25.02;;;;;;;5.49;92.38;97051.16;1744671;82;21460;-57
2022/04/24 03:15:12;;;;;;;44.18;27.82;;;;;;;5.50;90.97;97054.91;1744548;82;20992;-57
2022/04/24 03:17:38;;;;;;;36.68;22.87;;;;;;;5.42;90.14;97054.11;1744792;82;21490;-57
2022/04/24 03:20:06;;;;;;;37.85;24.37;;;;;;;5.36;88.76;97055.98;1744549;82;20850;-57
2022/04/24 03:22:33;;;;;;;38.73;25.17;;;;;;;5.23;92.09;97053.05;1757115;81;22063;-57
2022/04/24 03:25:04;;;;;;;38.70;23.80;;;;;;;5.19;91.60;97048.73;1739479;81;21605;-57
2022/04/24 03:27:30;;;;;;;37.08;23.73;;;;;;;5.18;92.25;97044.98;1747559;81;21056;-57
2022/04/24 03:29:55;;;;;;;40.50;22.98;;;;;;;5.18;89.98;97043.09;1744689;82;20916;-57
2022/04/24 03:32:21;;;;;;;35.05;21.77;;;;;;;5.16;90.49;97046.59;1744703;82;20873;-57
2022/04/24 03:34:47;;;;;;;37.85;24.27;;;;;;;5.12;89.45;97048.72;1750146;81;20984;-57
2022/04/24 03:37:13;;;;;;;42.27;26.15;;;;;;;5.10;89.23;97054.37;1762194;81;22258;-57
2022/04/24 03:39:39;;;;;;;41.58;27.75;;;;;;;5.14;89.60;97053.31;1731796;81;20889;-57
2022/04/24 03:42:07;;;;;;;43.90;26.50;;;;;;;5.14;89.68;97053.31;1744675;82;20937;-57
2022/04/24 03:44:33;;;;;;;43.85;27.45;;;;;;;5.15;90.16;97052.23;1744200;82;21817;-57
2022/04/24 03:46:59;;;;;;;39.45;26.93;;;;;;;5.17;92.51;97045.52;1738456;82;21060;-57
2022/04/24 03:49:26;;;;;;;41.85;27.82;;;;;;;5.23;92.70;97049.02;1744579;82;21472;-57
2022/04/24 03:51:53;;;;;;;45.12;26.80;;;;;;;5.26;91.89;97045.24;1739116;82;20980;-57
2022/04/24 03:54:19;;;;;;;45.35;26.65;;;;;;;5.29;92.93;97047.38;1738272;81;21052;-57
2022/04/24 03:56:45;;;;;;;39.38;24.98;;;;;;;5.30;94.77;97046.33;1742255;81;21456;-58
2022/04/24 03:59:11;;;;;;;43.15;26.75;;;;;;;5.29;93.09;97045.23;1724573;82;20885;-58
2022/04/24 04:01:37;;;;;;;39.92;25.20;;;;;;;5.22;91.71;97044.72;1734124;82;21514;-58
2022/04/24 04:04:03;;;;;;;48.50;28.75;;;;;;;5.21;92.36;97042.58;1744293;82;20873;-57
2022/04/24 04:06:29;;;;;;;42.50;26.95;;;;;;;5.18;94.64;97032.35;1744651;82;21008;-58
2022/04/24 04:08:55;;;;;;;45.78;26.68;;;;;;;5.19;96.36;97032.62;1744566;82;21659;-58
2022/04/24 04:11:21;;;;;;;43.48;27.15;;;;;;;5.19;92.72;97033.95;1744728;82;20878;-58
2022/04/24 04:13:47;;;;;;;85.67;39.15;;;;;;;5.19;92.72;97033.95;1754658;80;21007;-57
2022/04/24 04:16:13;;;;;;;52.48;29.60;;;;;;;5.19;91.91;97037.98;1750738;81;20972;-57
2022/04/24 04:18:39;;;;;;;47.93;28.90;;;;;;;5.14;91.77;97029.14;1728242;81;20987;-57
2022/04/24 04:21:05;;;;;;;57.45;33.45;;;;;;;5.18;91.60;97041.75;1727431;82;20977;-57
2022/04/24 04:23:31;;;;;;;57.27;34.65;;;;;;;5.18;92.00;97045.78;1737686;82;21016;-58
2022/04/24 04:25:57;;;;;;;39.83;25.27;;;;;;;5.21;95.17;97034.52;1747826;81;21670;-57
2022/04/24 04:28:23;;;;;;;39.50;26.02;;;;;;;5.27;94.68;97039.33;1746436;81;20924;-57
2022/04/24 04:30:49;;;;;;;52.13;31.42;;;;;;;5.29;94.08;97039.86;1736420;81;20888;-57
2022/04/24 04:33:15;;;;;;;45.85;28.52;;;;;;;5.30;93.94;97040.16;1748452;81;21040;-58
2022/04/24 04:35:41;;;;;;;44.65;27.85;;;;;;;5.32;93.49;97038.80;1738296;81;21004;-57
2022/04/24 04:38:07;;;;;;;46.05;30.17;;;;;;;5.34;95.39;97027.24;1740695;81;22090;-57
2022/04/24 04:40:33;;;;;;;41.40;25.72;;;;;;;5.37;94.71;97026.70;1727642;82;20845;-57
2022/04/24 04:42:58;;;;;;;41.75;27.32;;;;;;;5.41;94.26;97031.01;1744646;82;20928;-57
2022/04/24 04:45:27;;;;;;;41.88;26.40;;;;;;;5.45;95.68;97024.54;1744263;82;21394;-57
2022/04/24 04:47:53;;;;;;;38.60;25.57;;;;;;;5.50;95.11;97028.04;1748404;80;21000;-57
2022/04/24 04:50:19;;;;;;;41.77;27.62;;;;;;;5.53;94.40;97032.05;1761912;80;22217;-57
2022/04/24 04:52:45;;;;;;;41.48;26.75;;;;;;;5.55;94.89;97035.27;1728222;81;21409;-57
2022/04/24 04:55:11;;;;;;;38.85;27.10;;;;;;;5.61;94.33;97038.23;1734054;82;21617;-57
2022/04/24 04:57:36;;;;;;;38.65;25.20;;;;;;;5.62;94.94;97036.61;1756289;81;20861;-57
2022/04/24 05:00:07;;;;;;;41.77;28.12;;;;;;;5.61;97.41;97034.20;1733099;82;21580;-58
2022/04/24 05:02:37;;;;;;;38.45;25.55;;;;;;;5.64;96.69;97028.30;1735916;81;22127;-57
2022/04/24 05:05:07;;;;;;;41.40;28.52;;;;;;;5.67;95.02;97029.09;1754062;80;21421;-57
2022/04/24 05:07:32;;;;;;;;;;;;;;;5.65;96.13;97028.56;1736430;82;21007;-58
2022/04/24 05:09:58;;;;;;;38.10;24.05;;;;;;;5.69;96.64;97030.16;1744465;82;20233;-58
2022/04/24 05:12:28;;;;;;;38.25;24.72;;;;;;;5.72;95.36;97028.25;1744722;82;21528;-58
2022/04/24 05:14:58;;;;;;;31.90;22.90;;;;;;;5.71;93.67;97033.37;1744342;82;22315;-57
2022/04/24 05:17:24;;;;;;;37.73;25.15;;;;;;;5.71;92.97;97028.80;1744444;82;21493;-57
2022/04/24 05:19:49;;;;;;;37.73;24.57;;;;;;;5.72;93.07;97030.94;1731389;81;21384;-57
2022/04/24 05:22:15;;;;;;;44.53;28.12;;;;;;;5.73;92.92;97030.70;1726512;82;20956;-58
2022/04/24 05:24:41;;;;;;;35.35;24.85;;;;;;;5.77;95.24;97028.26;1726441;82;20882;-57
2022/04/24 05:27:07;;;;;;;45.65;27.60;;;;;;;5.85;93.67;97035.23;1740130;82;21533;-58
2022/04/24 05:29:33;;;;;;;39.85;26.65;;;;;;;5.91;93.54;97032.83;1741464;82;20935;-57
2022/04/24 05:31:59;;;;;;;36.03;24.80;;;;;;;6.07;95.43;97030.09;1727491;82;20865;-58
2022/04/24 05:34:25;;;;;;;38.73;25.23;;;;;;;6.07;95.43;97030.09;1744205;81;20924;-58
2022/04/24 05:36:51;;;;;;;44.48;29.95;;;;;;;6.14;96.00;97033.27;1755569;81;21048;-58
2022/04/24 05:39:17;;;;;;;47.43;29.27;;;;;;;6.20;96.25;97032.98;1743786;82;21174;-57
2022/04/24 05:41:43;;;;;;;44.63;28.65;;;;;;;6.28;96.54;97024.08;1728000;82;20948;-58
2022/04/24 05:44:09;;;;;;;41.68;28.67;;;;;;;6.37;95.63;97019.19;1739015;82;20945;-57
2022/04/24 05:46:35;;;;;;;43.28;29.12;;;;;;;6.49;94.58;97017.50;1752539;81;20863;-57
2022/04/24 05:49:02;;;;;;;46.55;32.00;;;;;;;6.59;93.80;97009.40;1736622;81;20969;-57
2022/04/24 05:51:29;;;;;;;46.92;31.02;;;;;;;6.63;97.40;97010.98;1726956;82;21559;-57
2022/04/24 05:53:55;;;;;;;40.65;28.47;;;;;;;6.73;95.48;97004.18;1721709;81;21035;-57
2022/04/24 05:56:21;;;;;;;39.42;28.77;;;;;;;6.87;94.51;96996.30;1732076;82;20961;-58
2022/04/24 05:58:47;;;;;;;46.65;30.35;;;;;;;6.97;93.85;96997.02;1744407;82;21051;-58
2022/04/24 06:01:13;;;;;;;49.42;35.03;;;;;;;7.04;94.19;96991.31;1749786;81;20834;-57
2022/04/24 06:03:42;;;;;;;55.00;38.17;;;;;;;7.11;97.02;96992.34;1761625;80;21570;-57
2022/04/24 06:06:08;;;;;;;53.58;35.52;;;;;;;7.23;95.55;96988.18;1746326;81;20982;-58
2022/04/24 06:08:34;;;;;;;50.78;34.95;;;;;;;7.32;96.02;96981.64;1744486;82;20992;-58
2022/04/24 06:11:00;;;;;;;46.55;35.30;;;;;;;7.45;95.39;96984.23;1744693;82;20878;-58
2022/04/24 06:13:27;;;;;;;47.05;33.13;;;;;;;7.63;94.80;96978.11;1744172;80;22053;-57
2022/04/24 06:15:57;;;;;;;57.23;41.25;;;;;;;7.73;95.38;96978.00;1758049;81;21513;-57
2022/04/24 06:18:21;;;;;;;75.30;53.63;;;;;;;7.86;94.39;96968.40;1746595;81;21072;-57
2022/04/24 06:20:47;;;;;;;73.47;58.00;;;;;;;7.94;94.74;96974.52;1743673;81;21634;-58
2022/04/24 06:23:13;;;;;;;56.45;46.10;;;;;;;7.98;94.72;96976.91;1744495;82;20873;-58
2022/04/24 06:25:39;;;;;;;61.70;44.00;;;;;;;8.03;94.44;96967.94;1744322;82;20873;-58
2022/04/24 06:28:05;;;;;;;54.65;38.73;;;;;;;8.09;94.01;96971.64;1744649;82;21454;-58
2022/04/24 06:30:32;;;;;;;55.88;37.03;;;;;;;8.11;93.46;96969.99;1744247;82;21025;-58
2022/04/24 06:33:00;;;;;;;65.55;44.80;;;;;;;8.07;93.62;96968.44;1744156;82;21001;-57
2022/04/24 06:35:27;;;;;;;275.77;139.30;;;;;;;8.04;93.11;96972.27;1744442;82;21099;-58
2022/04/24 06:37:54;;;;;;;193.90;110.63;;;;;;;8.02;94.30;96977.13;1761720;81;21752;-57
2022/04/24 06:40:20;;;;;;;76.50;47.38;;;;;;;8.01;94.37;96971.47;1741399;80;21518;-57
2022/04/24 06:42:50;;;;;;;63.85;40.20;;;;;;;8.01;94.27;96973.63;1743311;82;21012;-58
2022/04/24 06:45:25;;;;;;;76.97;47.85;;;;;;;7.97;93.36;96965.06;1752921;81;21015;-58
2022/04/24 06:47:50;;;;;;;93.50;57.85;;;;;;;7.96;95.84;96972.90;1761451;81;21060;-58
2022/04/24 06:50:16;;;;;;;64.67;43.20;;;;;;;7.99;94.49;96977.71;1742684;80;21658;-57
2022/04/24 06:52:41;;;;;;;72.40;44.18;;;;;;;7.99;96.76;96968.27;1725808;82;21474;-58
2022/04/24 06:55:08;;;;;;;81.90;45.80;;;;;;;8.03;97.24;96970.62;1733478;82;20940;-57
2022/04/24 06:57:34;;;;;;;64.62;38.40;;;;;;;8.07;96.12;96969.78;1745986;81;21056;-57
2022/04/24 07:00:00;;;;;;;63.40;41.73;;;;;;;8.16;95.52;96968.59;1754739;80;20842;-57
2022/04/24 07:02:26;;;;;;;148.17;82.97;;;;;;;8.22;96.13;96971.49;1744804;82;21528;-57
2022/04/24 07:04:52;;;;;;;102.92;61.33;;;;;;;8.28;95.07;96981.11;1744208;82;21022;-57
2022/04/24 07:07:18;;;;;;;49.03;35.55;;;;;;;8.26;94.92;96963.06;1757663;81;20857;-57
2022/04/24 07:09:43;;;;;;;77.47;53.30;;;;;;;8.28;95.76;96959.52;1736018;81;20940;-57
2022/04/24 07:12:10;;;;;;;63.92;40.48;;;;;;;8.39;94.80;96960.23;1762046;81;20865;-57
2022/04/24 07:14:36;;;;;;;52.23;32.05;;;;;;;8.44;94.30;96959.59;1736222;81;21486;-57
2022/04/24 07:17:03;;;;;;;46.77;31.48;;;;;;;8.47;93.95;96954.19;1737890;81;22244;-58
2022/04/24 07:19:29;;;;;;;47.38;30.55;;;;;;;8.50;93.36;96952.79;1756711;80;22083;-57
2022/04/24 07:21:55;;;;;;;42.53;30.17;;;;;;;8.47;93.38;96951.48;1762019;81;20888;-57
2022/04/24 07:24:21;;;;;;;63.20;40.35;;;;;;;8.43;93.37;96951.25;1733937;81;21034;-57
2022/04/24 07:26:46;;;;;;;59.93;40.20;;;;;;;8.39;93.07;96944.84;1744625;82;20914;-58
2022/04/24 07:29:12;;;;;;;46.35;34.85;;;;;;;8.36;94.18;96938.66;1757462;80;21060;-58
2022/04/24 07:31:38;;;;;;;55.75;40.92;;;;;;;8.36;93.27;96943.25;1762005;81;20951;-58
2022/04/24 07:34:04;;;;;;;47.53;35.30;;;;;;;8.28;93.40;96931.17;1746632;81;20925;-58
2022/04/24 07:36:31;;;;;;;53.87;37.70;;;;;;;8.27;93.01;96929.58;1751930;81;20952;-57
2022/04/24 07:38:57;;;;;;;56.05;41.42;;;;;;;8.19;92.92;96929.67;1750495;81;21021;-57
2022/04/24 07:41:23;;;;;;;51.30;37.75;;;;;;;8.15;93.76;96922.47;1747804;81;21458;-57
2022/04/24 07:43:49;;;;;;;56.80;41.75;;;;;;;8.15;93.12;96925.16;1736481;82;20916;-57
2022/04/24 07:46:15;;;;;;;52.13;40.30;;;;;;;8.15;93.29;96930.02;1744750;82;20861;-57
2022/04/24 07:48:41;;;;;;;64.92;44.42;;;;;;;8.19;93.41;96922.93;1744655;82;21339;-57
2022/04/24 07:51:07;;;;;;;60.65;45.17;;;;;;;8.24;94.80;96921.27;1736295;82;20989;-57
2022/04/24 07:53:33;;;;;;;56.15;42.05;;;;;;;8.33;94.01;96920.33;1720513;82;22378;-57
2022/04/24 07:55:59;;;;;;;82.62;56.37;;;;;;;8.36;94.06;96920.31;1744318;81;20889;-57
2022/04/24 07:58:26;;;;;;;149.23;100.35;;;;;;;8.36;93.49;96919.76;1745446;81;33365;-57
2022/04/24 08:00:52;;;;;;;107.32;81.53;;;;;;;8.38;94.11;96924.34;1734367;81;20972;-57
2022/04/24 08:03:22;;;;;;;122.58;87.47;;;;;;;8.38;93.70;96919.49;1755592;81;20957;-57
2022/04/24 08:05:48;;;;;;;54.67;37.83;;;;;;;8.38;94.55;96920.84;1743555;82;22148;-57
2022/04/24 08:08:17;;;;;;;46.83;32.88;;;;;;;8.43;93.53;96921.55;1751116;80;21413;-57
2022/04/24 08:10:53;;;;;;;46.23;32.45;;;;;;;8.44;93.38;96923.70;1736093;81;20984;-57
2022/04/24 08:13:20;;;;;;;46.35;33.70;;;;;;;8.48;94.16;96923.39;1730540;81;21000;-57
2022/04/24 08:15:46;;;;;;;39.58;26.57;;;;;;;8.54;94.58;96918.70;1751409;81;21497;-56
2022/04/24 08:18:12;;;;;;;51.33;37.13;;;;;;;8.64;94.94;96915.32;1744637;82;21653;-57
2022/04/24 08:20:39;;;;;;;38.08;25.90;;;;;;;8.76;94.26;96916.20;1756230;81;21748;-57
2022/04/24 08:23:05;;;;;;;76.42;46.83;;;;;;;8.80;94.95;96916.41;1751237;81;21555;-57
2022/04/24 08:25:34;;;;;;;31.82;24.75;;;;;;;8.87;93.80;96917.64;1747418;81;21441;-57
2022/04/24 08:28:00;;;;;;;33.95;23.87;;;;;;;8.89;93.47;96920.88;1749205;81;21059;-57
2022/04/24 08:30:26;;;;;;;35.20;25.68;;;;;;;8.95;93.51;96920.22;1761639;80;20939;-57
2022/04/24 08:32:52;;;;;;;41.37;31.33;;;;;;;8.93;93.27;96909.71;1732597;81;20885;-57
2022/04/24 08:35:19;;;;;;;42.78;31.70;;;;;;;8.95;94.08;96910.76;1744264;82;21594;-57
2022/04/24 08:37:46;;;;;;;44.75;35.10;;;;;;;8.97;93.65;96908.04;1744584;82;21453;-57
2022/04/24 08:40:13;;;;;;;50.50;33.65;;;;;;;9.01;93.53;96910.94;1744368;82;21441;-57
2022/04/24 08:42:42;;;;;;;58.87;38.08;;;;;;;9.07;93.54;96909.77;1756044;81;21453;-57
2022/04/24 08:45:15;;;;;;;;;;;;;;;9.09;93.32;96917.02;1736286;82;21053;-57
2022/04/24 08:47:42;;;;;;;41.63;29.35;;;;;;;9.16;93.14;96910.69;1744674;82;20470;-57
2022/04/24 08:50:09;;;;;;;43.00;30.97;;;;;;;9.19;92.90;96916.03;1744284;82;21060;-57
2022/04/24 08:52:35;;;;;;;39.18;28.75;;;;;;;9.21;93.00;96911.12;1753751;81;20979;-57
2022/04/24 08:55:02;;;;;;;34.63;25.23;;;;;;;9.25;92.86;96907.55;1754568;80;22133;-57
2022/04/24 08:57:30;;;;;;;31.07;21.33;;;;;;;9.29;93.32;96904.48;1744654;82;21002;-57
2022/04/24 08:59:57;;;;;;;29.27;19.85;;;;;;;9.41;92.85;96899.16;1750715;81;20984;-57
2022/04/24 09:02:23;;;;;;;28.47;20.10;;;;;;;9.51;92.60;96888.95;1732703;81;21063;-57
2022/04/24 09:04:49;;;;;;;42.30;26.52;;;;;;;9.65;92.64;96873.26;1703522;82;21013;-57
2022/04/24 09:07:18;;;;;;;47.88;32.38;;;;;;;9.81;92.41;96879.97;1744537;82;22447;-57
2022/04/24 09:09:49;;;;;;;42.05;28.23;;;;;;;10.00;92.65;96877.13;1744312;82;21418;-57
2022/04/24 09:12:17;;;;;;;38.55;26.02;;;;;;;10.25;92.31;96867.13;1757009;81;21630;-57
2022/04/24 09:14:52;;;;;;;52.55;38.58;;;;;;;10.44;92.45;96865.09;1756824;80;21445;-57
2022/04/24 09:17:28;;;;;;;46.10;31.50;;;;;;;10.66;92.05;96868.90;1743443;82;20980;-57
2022/04/24 09:19:55;;;;;;;31.33;23.07;;;;;;;10.82;91.49;96867.42;1743857;82;21576;-57
2022/04/24 09:22:22;;;;;;;88.25;54.42;;;;;;;10.85;90.68;96882.26;1744724;82;21048;-57
2022/04/24 09:25:01;;;;;;;51.92;33.45;;;;;;;10.71;89.56;96874.20;1744274;82;20988;-57
2022/04/24 09:27:32;;;;;;;43.38;30.60;;;;;;;10.73;89.61;96872.78;1745224;81;21072;-57
2022/04/24 09:30:12;;;;;;;34.27;25.88;;;;;;;11.07;89.73;96866.54;1745970;80;20992;-57
2022/04/24 09:32:50;;;;;;;25.48;19.00;;;;;;;11.36;89.21;96865.48;1742241;82;22417;-57
2022/04/24 09:35:33;;;;;;;27.50;18.83;;;;;;;11.77;88.61;96861.65;1740164;82;20992;-57
2022/04/24 09:38:17;;;;;;;25.60;20.30;;;;;;;11.95;86.30;96860.61;1744612;82;21687;-57
2022/04/24 09:40:48;;;;;;;24.12;19.85;;;;;;;12.22;87.25;96850.58;1746040;81;20985;-57
2022/04/24 09:43:18;;;;;;;23.50;18.52;;;;;;;12.54;86.92;96852.83;1748467;81;21011;-57
2022/04/24 09:45:53;;;;;;;23.73;17.75;;;;;;;12.77;85.90;96856.75;1728183;82;21150;-57
2022/04/24 09:48:21;;;;;;;24.70;17.62;;;;;;;12.80;85.52;96849.30;1739356;80;21480;-57
2022/04/24 09:50:51;;;;;;;21.02;16.50;;;;;;;12.91;82.98;96846.50;1751285;81;21465;-57
2022/04/24 09:53:19;;;;;;;20.30;16.57;;;;;;;13.10;84.13;96837.97;1755980;80;21005;-57
2022/04/24 09:55:45;;;;;;;20.52;15.88;;;;;;;13.56;84.12;96830.37;1737396;81;20996;-57
2022/04/24 09:58:12;;;;;;;30.82;20.60;;;;;;;13.74;83.61;96830.52;1744788;82;21757;-57
2022/04/24 10:00:38;;;;;;;26.87;19.73;;;;;;;13.76;82.54;96837.03;1745385;81;21635;-57
2022/04/24 10:03:05;;;;;;;47.85;20.27;;;;;;;13.53;81.73;96833.77;1756900;81;21008;-57
2022/04/24 10:05:31;;;;;;;25.23;17.05;;;;;;;13.49;82.29;96827.36;1738012;82;21420;-57
2022/04/24 10:07:57;;;;;;;25.52;19.05;;;;;;;13.56;82.52;96819.50;1729094;82;20910;-56
2022/04/24 10:10:23;;;;;;;38.48;23.42;;;;;;;13.72;81.17;96815.09;1744359;82;22081;-57
2022/04/24 10:12:50;;;;;;;30.75;21.40;;;;;;;13.87;79.52;96817.02;1744326;82;21776;-57
2022/04/24 10:15:17;;;;;;;54.20;32.15;;;;;;;14.04;79.89;96808.73;1724964;81;21456;-57
2022/04/24 10:18:13;;;;;;;46.33;30.82;;;;;;;14.31;78.80;96808.77;1756609;81;21087;-57
2022/04/24 10:21:11;;;;;;;22.70;17.42;;;;;;;14.29;78.68;96811.84;1737754;82;21071;-57
2022/04/24 10:23:37;;;;;;;24.20;16.53;;;;;;;14.33;78.78;96796.97;1744725;82;21544;-57
2022/04/24 10:26:06;;;;;;;24.67;17.62;;;;;;;14.51;78.66;96795.72;1758931;81;21039;-57
2022/04/24 10:28:39;;;;;;;20.40;15.48;;;;;;;14.86;78.00;96794.02;1751407;81;21021;-57
2022/04/24 10:31:07;;;;;;;19.90;14.15;;;;;;;15.37;76.59;96792.63;1748819;81;21059;-57
2022/04/24 10:33:35;;;;;;;18.10;13.58;;;;;;;15.71;74.26;96797.45;1750588;81;21044;-57
2022/04/24 10:36:14;;;;;;;18.57;11.50;;;;;;;15.95;73.87;96789.23;1731993;82;21994;-57
2022/04/24 10:38:56;;;;;;;7.58;6.28;;;;;;;16.19;73.42;96782.93;1728156;81;20999;-57
2022/04/24 10:41:30;;;;;;;7.65;5.85;;;;;;;16.40;71.50;96775.11;1747447;81;20988;-57
2022/04/24 10:44:17;;;;;;;7.45;4.72;;;;;;;16.63;68.84;96769.33;1748663;80;21015;-57
2022/04/24 10:46:40;;;;;;;7.08;4.42;;;;;;;16.98;66.53;96760.51;1759499;81;21004;-57
2022/04/24 10:49:13;;;;;;;6.90;4.53;;;;;;;17.17;64.53;96758.66;1749213;81;21349;-57
2022/04/24 10:51:41;;;;;;;14.18;4.78;;;;;;;17.20;64.66;96748.39;1752123;81;21005;-57
2022/04/24 10:54:13;;;;;;;9.00;4.28;;;;;;;17.29;63.80;96745.48;1744542;82;21052;-57
2022/04/24 10:56:49;;;;;;;5.78;3.65;;;;;;;17.42;64.08;96740.11;1752500;81;21448;-57
2022/04/24 10:59:16;;;;;;;9.60;4.53;;;;;;;17.50;62.62;96734.23;1747863;81;21076;-57
2022/04/24 11:01:48;;;;;;;8.18;4.55;;;;;;;17.55;61.05;96735.34;1752911;81;21768;-57
2022/04/24 11:04:15;;;;;;;10.13;5.15;;;;;;;17.69;61.32;96738.42;1748270;81;20992;-57
2022/04/24 11:06:58;;;;;;;7.83;4.15;;;;;;;17.75;60.80;96741.69;1744202;82;20969;-57
2022/04/24 11:09:26;;;;;;;7.35;3.72;;;;;;;17.74;58.85;96740.11;1744142;82;20985;-57
2022/04/24 11:12:03;;;;;;;9.53;4.53;;;;;;;17.86;58.29;96743.29;1708984;82;22735;-57
2022/04/24 11:14:29;;;;;;;7.47;4.33;;;;;;;17.55;59.56;96740.81;1729076;82;22170;-57
2022/04/24 11:17:00;;;;;;;7.53;4.35;;;;;;;17.83;58.17;96736.59;1744451;82;20981;-57
2022/04/24 11:19:28;;;;;;;6.72;4.17;;;;;;;17.86;58.72;96732.33;1732095;81;20993;-57
2022/04/24 11:21:57;;;;;;;10.30;4.75;;;;;;;18.06;59.40;96729.85;1736387;82;21223;-57
2022/04/24 11:24:28;;;;;;;13.10;5.58;;;;;;;18.09;58.46;96728.33;1744590;82;21008;-57